createdAt,value
2019-03-29T00:00:59.849Z,99763.10
2019-03-29T00:03:29.975Z,99770.20
2019-03-29T00:05:59.792Z,99769.41
2019-03-29T00:08:30.719Z,99763.14
2019-03-29T00:11:00.607Z,99766.05
2019-03-29T00:13:30.549Z,99766.95
2019-03-29T00:16:00.385Z,99760.13
2019-03-29T00:18:30.589Z,99760.58
2019-03-29T00:21:01.699Z,99757.34
2019-03-29T00:23:31.540Z,99763.30
2019-03-29T00:26:03.340Z,99754.82
2019-03-29T00:28:33.165Z,99760.42
2019-03-29T00:31:04.153Z,99756.05
2019-03-29T00:33:36.106Z,99751.80
2019-03-29T00:36:05.969Z,99759.57
2019-03-29T00:38:35.841Z,99757.09
2019-03-29T00:41:07.157Z,99749.51
2019-03-29T00:43:37.028Z,99750.03
2019-03-29T00:46:06.893Z,99752.84
2019-03-29T00:48:39.117Z,99756.69
2019-03-29T00:51:09.187Z,99754.17
2019-03-29T00:53:39.026Z,99754.44
2019-03-29T00:56:09.186Z,99748.41
2019-03-29T00:58:39.013Z,99741.31
2019-03-29T01:01:10.686Z,99746.38
2019-03-29T01:03:40.517Z,99742.50
2019-03-29T01:06:10.351Z,99740.85
2019-03-29T01:08:40.170Z,99744.12
2019-03-29T01:11:10.365Z,99745.48
2019-03-29T01:13:40.198Z,99743.00
2019-03-29T01:16:10.038Z,99742.28
2019-03-29T01:18:40.026Z,99740.66
2019-03-29T01:21:11.098Z,99746.17
2019-03-29T01:23:40.952Z,99737.83
2019-03-29T01:26:10.807Z,99735.61
2019-03-29T01:28:40.690Z,99732.44
2019-03-29T01:31:12.020Z,99732.27
2019-03-29T01:33:41.832Z,99741.52
2019-03-29T01:36:11.786Z,99736.09
2019-03-29T01:38:41.640Z,99737.22
2019-03-29T01:41:11.513Z,99735.27
2019-03-29T01:43:41.458Z,99731.07
2019-03-29T01:46:12.023Z,99725.91
2019-03-29T01:48:42.176Z,99729.19
2019-03-29T01:51:12.013Z,99725.72
2019-03-29T01:53:41.871Z,99726.51
2019-03-29T01:56:11.786Z,99728.96
2019-03-29T01:58:41.614Z,99722.70
2019-03-29T02:01:11.442Z,99717.80
2019-03-29T02:03:43.104Z,99717.52
2019-03-29T02:06:13.087Z,99716.92
2019-03-29T02:08:43.138Z,99711.42
2019-03-29T02:11:13.037Z,99711.84
2019-03-29T02:13:42.859Z,99703.59
2019-03-29T02:16:12.719Z,99704.41
2019-03-29T02:18:42.666Z,99696.52
2019-03-29T02:21:12.803Z,99703.77
2019-03-29T02:23:42.662Z,99696.80
2019-03-29T02:26:12.497Z,99698.52
2019-03-29T02:28:42.526Z,99695.20
2019-03-29T02:31:12.350Z,99691.22
2019-03-29T02:33:42.252Z,99690.13
2019-03-29T02:36:12.161Z,99690.98
2019-03-29T02:38:54.879Z,99696.67
2019-03-29T02:41:14.607Z,99683.64
2019-03-29T02:43:44.483Z,99688.22
2019-03-29T02:46:14.303Z,99685.30
2019-03-29T02:48:45.256Z,99686.38
2019-03-29T02:51:23.823Z,99682.80
2019-03-29T02:53:53.830Z,99687.32
2019-03-29T02:56:23.697Z,99680.81
2019-03-29T02:58:53.662Z,99682.95
2019-03-29T03:01:23.527Z,99676.38
2019-03-29T03:03:54.537Z,99678.50
2019-03-29T03:06:24.381Z,99678.69
2019-03-29T03:09:12.144Z,99676.83
2019-03-29T03:11:27.015Z,99679.72
2019-03-29T03:13:56.860Z,99674.25
2019-03-29T03:16:26.750Z,99679.12
2019-03-29T03:18:56.572Z,99677.12
2019-03-29T03:21:26.399Z,99675.75
2019-03-29T03:23:57.734Z,99673.30
2019-03-29T03:26:27.561Z,99673.48
2019-03-29T03:28:57.414Z,99677.09
2019-03-29T03:31:27.316Z,99674.31
2019-03-29T03:33:57.222Z,99676.64
2019-03-29T03:36:27.066Z,99675.28
2019-03-29T03:38:57.885Z,99679.17
2019-03-29T03:41:27.762Z,99677.45
2019-03-29T03:43:57.778Z,99681.91
2019-03-29T03:46:27.681Z,99684.48
2019-03-29T03:48:57.525Z,99675.77
2019-03-29T03:51:28.007Z,99682.39
2019-03-29T03:53:58.230Z,99684.73
2019-03-29T03:56:28.709Z,99689.89
2019-03-29T03:59:00.544Z,99689.70
2019-03-29T04:01:30.536Z,99691.67
2019-03-29T04:04:00.552Z,99689.02
2019-03-29T04:06:30.387Z,99692.53
2019-03-29T04:09:00.246Z,99696.28
2019-03-29T04:11:30.070Z,99685.53
2019-03-29T04:14:00.051Z,99691.41
2019-03-29T04:16:29.885Z,99695.14
2019-03-29T04:18:59.824Z,99697.38
2019-03-29T04:21:30.083Z,99699.00
2019-03-29T04:24:00.026Z,99701.55
2019-03-29T04:26:29.935Z,99697.74
2019-03-29T04:29:04.911Z,99695.50
2019-03-29T04:31:31.410Z,99694.09
2019-03-29T04:34:01.278Z,99694.92
2019-03-29T04:36:31.284Z,99688.66
2019-03-29T04:39:01.147Z,99698.86
2019-03-29T04:41:32.021Z,99688.52
2019-03-29T04:44:01.881Z,99687.69
2019-03-29T04:46:31.848Z,99690.10
2019-03-29T04:49:01.703Z,99684.14
2019-03-29T04:51:31.539Z,99683.81
2019-03-29T04:54:03.761Z,99678.91
2019-03-29T04:56:33.709Z,99675.91
2019-03-29T04:59:03.546Z,99677.29
2019-03-29T05:01:33.436Z,99675.89
2019-03-29T05:04:03.454Z,99683.72
2019-03-29T05:06:33.365Z,99682.02
2019-03-29T05:09:03.765Z,99685.92
2019-03-29T05:11:33.643Z,99687.02
2019-03-29T05:14:03.495Z,99688.35
2019-03-29T05:16:33.436Z,99688.86
2019-03-29T05:19:03.323Z,99688.27
2019-03-29T05:21:33.258Z,99686.67
2019-03-29T05:24:03.149Z,99684.32
2019-03-29T05:26:33.083Z,99686.23
2019-03-29T05:29:02.932Z,99677.77
2019-03-29T05:31:32.798Z,99679.05
2019-03-29T05:34:02.651Z,99682.36
2019-03-29T05:36:32.583Z,99679.38
2019-03-29T05:39:02.418Z,99689.41
2019-03-29T05:41:32.321Z,99690.53
2019-03-29T05:44:02.241Z,99689.03
2019-03-29T05:46:32.084Z,99689.58
2019-03-29T05:49:01.970Z,99693.80
2019-03-29T05:51:31.808Z,99692.71
2019-03-29T05:54:01.642Z,99690.37
2019-03-29T05:56:36.244Z,99689.41
2019-03-29T05:59:06.403Z,99687.34
2019-03-29T06:01:36.719Z,99696.30
2019-03-29T06:04:08.597Z,99693.84
2019-03-29T06:06:38.956Z,99687.20
2019-03-29T06:09:10.738Z,99688.29
2019-03-29T06:11:40.693Z,99692.06
2019-03-29T06:14:10.792Z,99693.65
2019-03-29T06:16:42.836Z,99686.59
2019-03-29T06:19:14.468Z,99687.05
2019-03-29T06:21:44.577Z,99686.79
2019-03-29T06:24:15.752Z,99685.55
2019-03-29T06:26:45.967Z,99680.86
2019-03-29T06:29:16.606Z,99671.47
2019-03-29T06:31:46.724Z,99676.26
2019-03-29T06:34:17.063Z,99675.37
2019-03-29T06:36:48.609Z,99663.91
2019-03-29T06:39:21.347Z,99666.69
2019-03-29T06:41:51.734Z,99666.61
2019-03-29T06:44:22.025Z,99660.98
2019-03-29T06:46:52.089Z,99660.87
2019-03-29T06:49:23.345Z,99652.55
2019-03-29T06:51:53.306Z,99652.59
2019-03-29T06:54:23.218Z,99656.98
2019-03-29T06:56:54.275Z,99653.61
2019-03-29T06:59:24.279Z,99659.96
2019-03-29T07:01:54.260Z,99653.91
2019-03-29T07:04:25.260Z,99655.31
2019-03-29T07:06:55.187Z,99661.77
2019-03-29T07:09:25.029Z,99655.21
2019-03-29T07:11:55.016Z,99657.22
2019-03-29T07:14:24.868Z,99655.98
2019-03-29T07:16:54.846Z,99655.29
2019-03-29T07:19:24.760Z,99656.75
2019-03-29T07:21:54.707Z,99657.77
2019-03-29T07:24:24.560Z,99659.11
2019-03-29T07:26:54.504Z,99658.33
2019-03-29T07:29:24.385Z,99653.27
2019-03-29T07:31:54.275Z,99657.70
2019-03-29T07:34:25.757Z,99657.97
2019-03-29T07:36:55.591Z,99655.75
2019-03-29T07:39:25.524Z,99657.01
2019-03-29T07:41:55.472Z,99657.18
2019-03-29T07:44:25.340Z,99645.53
2019-03-29T07:46:55.184Z,99653.83
2019-03-29T07:49:25.032Z,99643.37
2019-03-29T07:51:54.884Z,99647.30
2019-03-29T07:54:24.724Z,99650.16
2019-03-29T07:56:54.651Z,99637.53
2019-03-29T07:59:24.494Z,99639.12
2019-03-29T08:01:54.331Z,99640.48
2019-03-29T08:04:24.317Z,99638.73
2019-03-29T08:06:54.165Z,99633.78
2019-03-29T08:09:24.151Z,99635.63
2019-03-29T08:11:55.245Z,99629.97
2019-03-29T08:14:25.335Z,99638.12
2019-03-29T08:16:55.283Z,99630.09
2019-03-29T08:19:43.665Z,99620.30
2019-03-29T08:22:13.586Z,99635.25
2019-03-29T08:24:43.523Z,99625.48
2019-03-29T08:27:13.427Z,99622.41
2019-03-29T08:29:44.823Z,99625.00
2019-03-29T08:32:14.786Z,99617.38
2019-03-29T08:34:45.747Z,99615.62
2019-03-29T08:37:15.677Z,99610.39
2019-03-29T08:39:45.626Z,99614.70
2019-03-29T08:42:18.364Z,99612.89
2019-03-29T08:44:47.077Z,99620.14
2019-03-29T08:47:16.937Z,99615.69
2019-03-29T08:49:46.868Z,99610.34
2019-03-29T08:52:16.727Z,99616.64
2019-03-29T08:54:46.571Z,99614.77
2019-03-29T08:57:16.583Z,99608.34
2019-03-29T08:59:46.740Z,99609.91
2019-03-29T09:02:16.589Z,99601.02
2019-03-29T09:04:46.957Z,99613.13
2019-03-29T09:07:16.853Z,99589.98
2019-03-29T09:09:46.967Z,99589.98
2019-03-29T09:12:16.829Z,99602.95
2019-03-29T09:14:46.634Z,99602.33
2019-03-29T09:17:16.496Z,99599.75
2019-03-29T09:19:46.877Z,99594.75
2019-03-29T09:22:17.062Z,99586.05
2019-03-29T09:24:47.012Z,99595.55
2019-03-29T09:27:16.865Z,99593.92
2019-03-29T09:29:46.797Z,99594.45
2019-03-29T09:32:16.689Z,99604.44
2019-03-29T09:34:46.546Z,99591.09
2019-03-29T09:37:16.411Z,99583.14
2019-03-29T09:39:46.280Z,99577.64
2019-03-29T09:42:28.164Z,99588.20
2019-03-29T09:44:47.689Z,99590.37
2019-03-29T09:47:17.556Z,99585.12
2019-03-29T09:49:47.426Z,99578.62
2019-03-29T09:52:17.285Z,99578.92
2019-03-29T09:54:47.149Z,99578.48
2019-03-29T09:57:17.066Z,99572.67
2019-03-29T09:59:46.992Z,99576.05
2019-03-29T10:02:16.941Z,99587.36
2019-03-29T10:04:46.802Z,99582.30
2019-03-29T10:07:16.801Z,99572.49
2019-03-29T10:09:46.651Z,99571.75
2019-03-29T10:12:16.548Z,99567.84
2019-03-29T10:14:46.349Z,99560.98
2019-03-29T10:17:16.248Z,99557.42
2019-03-29T10:19:49.846Z,99564.20
2019-03-29T10:22:19.814Z,99561.41
2019-03-29T10:24:49.656Z,99570.63
2019-03-29T10:27:19.563Z,99561.35
2019-03-29T10:29:49.430Z,99567.22
2019-03-29T10:32:19.292Z,99559.95
2019-03-29T10:34:49.171Z,99561.41
2019-03-29T10:37:18.997Z,99558.37
2019-03-29T10:39:48.879Z,99556.06
2019-03-29T10:42:18.712Z,99550.08
2019-03-29T10:44:49.523Z,99550.52
2019-03-29T10:47:19.709Z,99551.68
2019-03-29T10:49:49.540Z,99561.23
2019-03-29T10:52:19.392Z,99547.02
2019-03-29T10:54:50.031Z,99537.33
2019-03-29T10:57:20.042Z,99533.99
2019-03-29T10:59:49.864Z,99538.56
2019-03-29T11:02:19.831Z,99539.41
2019-03-29T11:04:49.728Z,99531.31
2019-03-29T11:07:19.593Z,99520.84
2019-03-29T11:09:49.412Z,99525.70
2019-03-29T11:12:19.331Z,99525.70
2019-03-29T11:14:49.204Z,99531.89
2019-03-29T11:17:19.109Z,99525.62
2019-03-29T11:19:48.963Z,99525.62
2019-03-29T11:22:18.870Z,99528.47
2019-03-29T11:24:49.726Z,99531.98
2019-03-29T11:27:22.361Z,99522.82
2019-03-29T11:29:51.381Z,99522.14
2019-03-29T11:32:22.237Z,99523.23
2019-03-29T11:34:52.083Z,99524.46
2019-03-29T11:37:22.036Z,99514.91
2019-03-29T11:39:51.866Z,99520.39
2019-03-29T11:42:22.067Z,99509.21
2019-03-29T11:45:03.087Z,99498.48
2019-03-29T11:47:32.009Z,99498.48
2019-03-29T11:50:01.947Z,99489.97
2019-03-29T11:52:33.866Z,99486.09
2019-03-29T11:55:03.390Z,99475.53
2019-03-29T11:57:33.231Z,99472.51
2019-03-29T12:00:03.171Z,99477.67
2019-03-29T12:02:33.056Z,99467.65
2019-03-29T12:05:03.415Z,99470.94
2019-03-29T12:07:33.349Z,99457.69
2019-03-29T12:10:03.489Z,99468.37
2019-03-29T12:12:33.351Z,99458.00
2019-03-29T12:15:03.237Z,99446.70
2019-03-29T12:17:33.236Z,99445.91
2019-03-29T12:20:03.072Z,99438.72
2019-03-29T12:22:32.909Z,99439.61
2019-03-29T12:25:02.794Z,99446.27
2019-03-29T12:27:33.961Z,99447.84
2019-03-29T12:30:04.194Z,99435.66
2019-03-29T12:32:34.018Z,99438.14
2019-03-29T12:35:03.860Z,99425.99
2019-03-29T12:37:33.705Z,99434.48
2019-03-29T12:40:03.722Z,99430.37
2019-03-29T12:42:33.638Z,99423.80
2019-03-29T12:45:03.474Z,99417.45
2019-03-29T12:47:33.358Z,99418.53
2019-03-29T12:50:03.168Z,99417.50
2019-03-29T12:52:33.010Z,99413.73
2019-03-29T12:55:02.869Z,99412.16
2019-03-29T12:57:32.940Z,99407.53
2019-03-29T13:00:02.940Z,99401.73
2019-03-29T13:02:34.506Z,99390.05
2019-03-29T13:05:06.399Z,99402.09
2019-03-29T13:07:37.284Z,99400.64
2019-03-29T13:10:07.838Z,99393.38
2019-03-29T13:12:37.686Z,99392.06
2019-03-29T13:15:08.457Z,99385.59
2019-03-29T13:17:38.415Z,99383.87
2019-03-29T13:20:10.803Z,99375.30
2019-03-29T13:22:40.662Z,99370.28
2019-03-29T13:25:10.961Z,99369.44
2019-03-29T13:27:40.877Z,99368.16
2019-03-29T13:30:11.117Z,99361.30
2019-03-29T13:32:40.984Z,99349.41
2019-03-29T13:35:11.037Z,99355.38
2019-03-29T13:37:40.908Z,99346.83
2019-03-29T13:40:11.268Z,99341.53
2019-03-29T13:42:42.253Z,99339.52
2019-03-29T13:45:12.223Z,99334.31
2019-03-29T13:47:56.628Z,99331.55
2019-03-29T13:50:26.640Z,99321.83
2019-03-29T13:52:56.460Z,99315.87
2019-03-29T13:55:26.303Z,99313.58
2019-03-29T13:57:56.174Z,99312.31
2019-03-29T14:00:26.014Z,99303.64
2019-03-29T14:02:55.885Z,99304.20
2019-03-29T14:05:25.869Z,99306.20
2019-03-29T14:07:55.757Z,99302.06
2019-03-29T14:10:25.626Z,99289.67
2019-03-29T14:12:55.574Z,99285.71
2019-03-29T14:15:25.599Z,99276.01
2019-03-29T14:17:55.474Z,99276.66
2019-03-29T14:20:33.205Z,99284.05
2019-03-29T14:23:04.835Z,99281.70
2019-03-29T14:25:34.802Z,99278.98
2019-03-29T14:28:06.015Z,99276.16
2019-03-29T14:30:35.948Z,99273.41
2019-03-29T14:33:05.815Z,99273.27
2019-03-29T14:35:35.656Z,99269.14
2019-03-29T14:38:05.538Z,99271.02
2019-03-29T14:40:35.382Z,99265.98
2019-03-29T14:43:05.263Z,99264.53
2019-03-29T14:45:36.236Z,99266.29
2019-03-29T14:48:06.411Z,99262.28
2019-03-29T14:50:36.395Z,99259.25
2019-03-29T14:53:06.342Z,99254.88
2019-03-29T14:55:36.289Z,99253.12
2019-03-29T14:58:06.337Z,99243.97
2019-03-29T15:00:41.321Z,99250.65
2019-03-29T15:03:12.213Z,99252.64
2019-03-29T15:05:42.471Z,99246.10
2019-03-29T15:08:12.456Z,99245.61
2019-03-29T15:10:45.491Z,99239.80
2019-03-29T15:13:14.128Z,99234.84
2019-03-29T15:15:43.984Z,99231.03
2019-03-29T15:18:13.963Z,99229.77
2019-03-29T15:20:53.150Z,99231.05
2019-03-29T15:23:15.415Z,99223.25
2019-03-29T15:25:45.285Z,99225.80
2019-03-29T15:28:15.194Z,99218.94
2019-03-29T15:30:45.053Z,99223.06
2019-03-29T15:33:14.867Z,99214.63
2019-03-29T15:35:44.801Z,99214.63
2019-03-29T15:38:14.659Z,99207.31
2019-03-29T15:40:44.491Z,99209.77
2019-03-29T15:43:14.343Z,99212.11
2019-03-29T15:45:44.238Z,99212.30
2019-03-29T15:48:14.102Z,99214.51
2019-03-29T15:50:58.722Z,99204.78
2019-03-29T15:53:28.672Z,99206.63
2019-03-29T15:55:58.522Z,99205.20
2019-03-29T15:58:28.367Z,99201.11
2019-03-29T16:00:58.232Z,99204.56
2019-03-29T16:03:28.090Z,99199.34
2019-03-29T16:05:58.075Z,99196.20
2019-03-29T16:08:27.922Z,99193.89
2019-03-29T16:10:57.810Z,99199.98
2019-03-29T16:13:27.619Z,99192.16
2019-03-29T16:15:57.492Z,99193.37
2019-03-29T16:18:27.415Z,99183.14
2019-03-29T16:20:57.250Z,99191.05
2019-03-29T16:23:27.105Z,99187.72
2019-03-29T16:25:56.999Z,99185.91
2019-03-29T16:28:28.028Z,99183.47
2019-03-29T16:30:57.910Z,99179.92
2019-03-29T16:33:27.751Z,99182.37
2019-03-29T16:35:57.598Z,99176.86
2019-03-29T16:38:27.529Z,99178.67
2019-03-29T16:40:59.543Z,99178.19
2019-03-29T16:43:30.622Z,99176.31
2019-03-29T16:46:01.272Z,99171.03
2019-03-29T16:48:31.098Z,99178.00
2019-03-29T16:51:03.574Z,99169.73
2019-03-29T16:53:33.452Z,99168.28
2019-03-29T16:56:05.522Z,99172.31
2019-03-29T16:58:36.654Z,99174.58
2019-03-29T17:01:08.046Z,99175.41
2019-03-29T17:03:37.863Z,99172.92
2019-03-29T17:06:07.935Z,99169.50
2019-03-29T17:08:37.914Z,99165.31
2019-03-29T17:11:07.741Z,99173.25
2019-03-29T17:13:50.346Z,99164.31
2019-03-29T17:16:30.173Z,99169.57
2019-03-29T17:18:53.141Z,99168.64
2019-03-29T17:21:23.871Z,99165.77
2019-03-29T17:23:54.569Z,99163.88
2019-03-29T17:26:24.883Z,99166.98
2019-03-29T17:28:55.578Z,99169.23
2019-03-29T17:31:26.151Z,99168.88
2019-03-29T17:33:56.816Z,99170.14
2019-03-29T17:36:27.958Z,99166.02
2019-03-29T17:38:58.523Z,99169.46
2019-03-29T17:41:31.605Z,99168.99
2019-03-29T17:44:02.523Z,99174.89
2019-03-29T17:46:33.153Z,99179.59
2019-03-29T17:49:03.553Z,99176.11
2019-03-29T17:51:33.441Z,99176.23
2019-03-29T17:54:04.473Z,99180.13
2019-03-29T17:56:34.370Z,99179.39
2019-03-29T17:59:04.778Z,99179.28
2019-03-29T18:01:34.666Z,99175.20
2019-03-29T18:04:04.631Z,99173.60
2019-03-29T18:06:34.457Z,99183.69
2019-03-29T18:09:06.120Z,99180.70
2019-03-29T18:11:35.987Z,99174.98
2019-03-29T18:14:06.056Z,99184.05
2019-03-29T18:16:35.957Z,99188.98
2019-03-29T18:19:05.916Z,99187.15
2019-03-29T18:21:35.886Z,99186.73
2019-03-29T18:24:05.748Z,99195.89
2019-03-29T18:26:35.727Z,99193.14
2019-03-29T18:29:05.672Z,99194.17
2019-03-29T18:31:35.823Z,99194.05
2019-03-29T18:34:06.167Z,99192.45
2019-03-29T18:36:36.528Z,99200.26
2019-03-29T18:39:07.996Z,99201.51
2019-03-29T18:41:37.863Z,99201.98
2019-03-29T18:44:08.978Z,99204.38
2019-03-29T18:46:44.839Z,99202.55
2019-03-29T18:49:10.639Z,99200.05
2019-03-29T18:51:40.506Z,99204.38
2019-03-29T18:54:10.513Z,99202.78
2019-03-29T18:56:40.337Z,99205.52
2019-03-29T18:59:10.222Z,99208.73
2019-03-29T19:01:40.170Z,99212.36
2019-03-29T19:04:10.138Z,99218.53
2019-03-29T19:06:39.978Z,99216.02
2019-03-29T19:09:09.835Z,99211.00
2019-03-29T19:11:40.159Z,99206.86
2019-03-29T19:14:10.003Z,99212.81
2019-03-29T19:16:40.759Z,99208.63
2019-03-29T19:19:10.736Z,99215.24
2019-03-29T19:21:40.566Z,99209.86
2019-03-29T19:24:10.394Z,99213.52
2019-03-29T19:26:40.259Z,99213.75
2019-03-29T19:29:10.203Z,99215.55
2019-03-29T19:31:40.058Z,99216.99
2019-03-29T19:34:11.350Z,99215.86
2019-03-29T19:36:41.508Z,99217.42
2019-03-29T19:39:11.363Z,99211.98
2019-03-29T19:41:41.203Z,99212.01
2019-03-29T19:44:13.746Z,99207.79
2019-03-29T19:46:42.627Z,99211.20
2019-03-29T19:49:12.547Z,99212.33
2019-03-29T19:51:42.414Z,99204.97
2019-03-29T19:54:12.260Z,99202.00
2019-03-29T19:56:42.167Z,99204.17
2019-03-29T19:59:12.183Z,99201.84
2019-03-29T20:01:42.094Z,99201.09
2019-03-29T20:04:12.053Z,99209.31
2019-03-29T20:06:41.881Z,99199.95
2019-03-29T20:09:11.776Z,99200.58
2019-03-29T20:11:41.650Z,99200.20
2019-03-29T20:14:11.507Z,99202.13
2019-03-29T20:16:41.485Z,99203.40
2019-03-29T20:19:11.505Z,99201.37
2019-03-29T20:21:41.346Z,99201.47
2019-03-29T20:24:11.213Z,99201.77
2019-03-29T20:26:41.048Z,99206.48
2019-03-29T20:29:12.113Z,99201.41
2019-03-29T20:31:41.962Z,99201.88
2019-03-29T20:34:11.875Z,99196.90
2019-03-29T20:36:41.830Z,99193.20
2019-03-29T20:39:39.672Z,99192.31
2019-03-29T20:42:09.533Z,99196.33
2019-03-29T20:44:39.403Z,99198.11
2019-03-29T20:47:09.342Z,99195.27
2019-03-29T20:49:39.151Z,99194.06
2019-03-29T20:52:09.010Z,99192.50
2019-03-29T20:54:38.832Z,99192.37
2019-03-29T20:57:09.980Z,99191.67
2019-03-29T20:59:41.072Z,99187.28
2019-03-29T21:02:10.924Z,99181.81
2019-03-29T21:04:40.782Z,99192.42
2019-03-29T21:07:10.769Z,99193.14
2019-03-29T21:09:40.718Z,99189.62
2019-03-29T21:12:10.639Z,99188.13
2019-03-29T21:14:40.555Z,99185.53
2019-03-29T21:17:10.519Z,99183.67
2019-03-29T21:19:40.483Z,99177.69
2019-03-29T21:22:10.382Z,99185.84
2019-03-29T21:24:40.204Z,99174.47
2019-03-29T21:27:10.178Z,99176.22
2019-03-29T21:29:39.992Z,99171.89
2019-03-29T21:32:09.936Z,99173.95
2019-03-29T21:34:39.844Z,99174.44
2019-03-29T21:37:09.625Z,99175.31
2019-03-29T21:39:39.579Z,99168.27
2019-03-29T21:42:09.406Z,99172.55
2019-03-29T21:44:40.705Z,99166.73
2019-03-29T21:47:10.556Z,99164.56
2019-03-29T21:49:40.557Z,99174.01
2019-03-29T21:52:10.945Z,99168.63
2019-03-29T21:54:41.212Z,99170.05
2019-03-29T21:57:11.065Z,99163.11
2019-03-29T21:59:40.981Z,99163.11
2019-03-29T22:02:10.914Z,99164.10
2019-03-29T22:04:40.772Z,99163.02
2019-03-29T22:07:10.691Z,99159.02
2019-03-29T22:09:40.507Z,99158.12
2019-03-29T22:12:11.881Z,99162.52
2019-03-29T22:14:41.768Z,99161.16
2019-03-29T22:17:11.716Z,99163.84
2019-03-29T22:19:41.660Z,99157.82
2019-03-29T22:22:11.765Z,99146.70
2019-03-29T22:24:41.633Z,99148.95
2019-03-29T22:27:11.447Z,99146.80
2019-03-29T22:29:41.272Z,99151.68
2019-03-29T22:32:11.154Z,99151.38
2019-03-29T22:34:40.971Z,99155.61
2019-03-29T22:37:10.824Z,99150.84
2019-03-29T22:39:40.675Z,99149.52
2019-03-29T22:42:24.553Z,99146.93
2019-03-29T22:44:55.798Z,99147.25
2019-03-29T22:47:26.766Z,99145.09
2019-03-29T22:49:56.583Z,99144.45
2019-03-29T22:52:26.428Z,99141.95
2019-03-29T22:54:56.300Z,99138.82
2019-03-29T22:57:26.154Z,99135.30
2019-03-29T22:59:56.759Z,99135.09
2019-03-29T23:02:26.892Z,99129.57
2019-03-29T23:04:56.892Z,99134.16
2019-03-29T23:07:26.836Z,99129.73
2019-03-29T23:09:56.685Z,99131.22
2019-03-29T23:12:26.683Z,99129.16
2019-03-29T23:14:56.481Z,99125.33
2019-03-29T23:17:26.322Z,99128.70
2019-03-29T23:19:56.150Z,99122.51
2019-03-29T23:22:26.014Z,99124.98
2019-03-29T23:24:55.860Z,99118.83
2019-03-29T23:27:25.683Z,99113.95
2019-03-29T23:29:55.544Z,99120.91
2019-03-29T23:32:25.415Z,99117.52
2019-03-29T23:34:55.240Z,99121.84
2019-03-29T23:37:25.077Z,99125.77
2019-03-29T23:39:54.946Z,99126.25
2019-03-29T23:42:24.797Z,99121.51
2019-03-29T23:44:54.671Z,99114.62
2019-03-29T23:47:24.521Z,99117.08
2019-03-29T23:49:54.326Z,99114.94
2019-03-29T23:52:25.385Z,99110.80
2019-03-29T23:54:55.219Z,99111.81
2019-03-29T23:57:25.057Z,99104.38
2019-03-29T23:59:54.991Z,99104.26
